»·PEaware :: COA777 KLAX-KTUS

COA777 :: KLAX-KTUS

FLIGHT INFORMATION

Flight Status: Arrived
Operator:
Continental Air Lines
More flights by this operator :: More flights under this callsign
Pilot: Andrew C. (28419)
Aircraft: BOEING 757-200
(B752)
More flights by this aircraft type
Origin: KLAX Los Angeles Intl
United States
Destination: KTUS Tucson Intl
United States
More flights between these airports :: More routes between these airports
Route: DOTSS2 CNERY BLH J50 GBN DINGO5
File this flight plan on PilotEdge
Remarks: RMK / SIMBRIEF
Altitude:
(Current/Filed)
39,000ft
Speed:
(Current/Filed)
456kts
Departed: 21-Aug-20 07:25 PM
Arrived: 21-Aug-20 08:29 PM
Distance/Time
Traveled:
391nm/1:03
Distance/Time
To Go:
Arrived

Flight Plot

Page will automatically refresh every two minutes.

Flight plan parsing failed; only flown route is shown


Map Options




Map Legend


Flown Route
Filed Route
Departure Airport
Arrival Airport
Navaid (VOR, NDB)
Fix

Horizontal Profiles

Position Reports

Time Latitude Longitude Heading Altitude Ground
Speed
21-Aug-20 18:59 33.942029 -118.400294 70 117ft 0kts
21-Aug-20 19:00 33.942029 -118.400294 70 117ft 0kts
21-Aug-20 19:00 33.942029 -118.400294 70 116ft 0kts
21-Aug-20 19:02 33.942029 -118.400294 70 116ft 0kts
21-Aug-20 19:03 33.942029 -118.400294 70 116ft 0kts
21-Aug-20 19:03 33.942029 -118.400294 70 116ft 0kts
21-Aug-20 19:05 33.942029 -118.400294 70 116ft 0kts
21-Aug-20 19:05 33.942029 -118.400294 70 116ft 0kts
21-Aug-20 19:06 33.942029 -118.400294 70 116ft 0kts
21-Aug-20 19:08 33.942029 -118.400294 70 116ft 0kts
21-Aug-20 19:08 33.942029 -118.400294 70 116ft 0kts
21-Aug-20 19:09 33.942029 -118.400294 70 116ft 0kts
21-Aug-20 19:10 33.942029 -118.400294 70 116ft 0kts
21-Aug-20 19:11 33.942029 -118.400294 70 116ft 0kts
21-Aug-20 19:12 33.942029 -118.400294 70 116ft 0kts
21-Aug-20 19:13 33.942029 -118.400294 70 116ft 0kts
21-Aug-20 19:14 33.942029 -118.400294 70 116ft 0kts
21-Aug-20 19:15 33.941971 -118.400486 69 117ft 2kts
21-Aug-20 19:16 33.942171 -118.401001 166 117ft 1kts
21-Aug-20 19:17 33.942269 -118.401017 173 116ft 0kts
21-Aug-20 19:18 33.942269 -118.401017 173 116ft 0kts
21-Aug-20 19:19 33.942111 -118.400993 172 116ft 2kts
21-Aug-20 19:20 33.940322 -118.400721 172 117ft 10kts
21-Aug-20 19:21 33.939143 -118.396392 83 117ft 23kts
21-Aug-20 19:22 33.940165 -118.386485 82 117ft 30kts
21-Aug-20 19:23 33.940756 -118.380371 108 117ft 0kts
21-Aug-20 19:24 33.939454 -118.383967 263 117ft 67kts
21-Aug-20 19:25 33.933037 -118.443699 263 1781ft 202kts
21-Aug-20 19:26 33.885004 -118.527131 228 5779ft 230kts
21-Aug-20 19:27 33.824074 -118.554178 167 8809ft 239kts
21-Aug-20 19:28 33.754512 -118.536138 167 10702ft 297kts
21-Aug-20 19:29 33.678431 -118.474024 113 12654ft 369kts
21-Aug-20 19:30 33.648337 -118.356503 102 13135ft 378kts
21-Aug-20 19:31 33.644835 -118.230683 90 16811ft 388kts
21-Aug-20 19:32 33.644715 -118.097645 90 19924ft 405kts
21-Aug-20 19:33 33.644547 -117.960761 90 22716ft 419kts
21-Aug-20 19:34 33.643962 -117.818451 94 25080ft 432kts
21-Aug-20 19:35 33.614969 -117.677306 107 27221ft 442kts
21-Aug-20 19:36 33.579780 -117.534137 107 29092ft 455kts
21-Aug-20 19:37 33.543219 -117.386854 108 30735ft 468kts
21-Aug-20 19:38 33.507677 -117.236234 100 32530ft 473kts
21-Aug-20 19:39 33.502978 -117.077901 92 34237ft 476kts
21-Aug-20 19:40 33.500592 -116.919806 92 35805ft 474kts
21-Aug-20 19:41 33.498119 -116.762078 92 36957ft 474kts
21-Aug-20 19:42 33.495460 -116.604228 92 37819ft 475kts
21-Aug-20 19:43 33.492598 -116.446200 92 38530ft 475kts
21-Aug-20 19:44 33.490198 -116.288631 92 38840ft 476kts
21-Aug-20 19:45 33.487704 -116.130751 92 38838ft 475kts
21-Aug-20 19:46 33.504359 -115.974343 71 38818ft 479kts
21-Aug-20 19:47 33.547719 -115.823856 71 38815ft 479kts
21-Aug-20 19:48 33.591409 -115.673368 71 38831ft 479kts
21-Aug-20 19:49 33.627702 -115.520333 87 38844ft 477kts
21-Aug-20 19:50 33.619378 -115.362376 94 38836ft 476kts
21-Aug-20 19:51 33.612908 -115.204060 93 38835ft 476kts
21-Aug-20 19:52 33.607000 -115.045239 93 38799ft 477kts
21-Aug-20 19:53 33.600964 -114.886121 93 38771ft 478kts
21-Aug-20 19:54 33.593330 -114.726947 97 38774ft 479kts
21-Aug-20 19:55 33.579024 -114.568735 96 38774ft 479kts
21-Aug-20 19:56 33.564642 -114.409523 96 38776ft 481kts
21-Aug-20 19:57 33.550176 -114.251474 97 38776ft 481kts
21-Aug-20 19:58 33.535377 -114.092055 97 38830ft 481kts
21-Aug-20 19:59 33.520425 -113.933268 97 38873ft 482kts
21-Aug-20 20:00 33.505223 -113.773976 97 38868ft 481kts
21-Aug-20 20:01 33.489753 -113.614116 97 38866ft 482kts
21-Aug-20 20:02 33.474119 -113.454743 96 38860ft 481kts
21-Aug-20 20:03 33.429055 -113.307101 129 38851ft 477kts
21-Aug-20 20:04 33.342320 -113.186933 132 38844ft 476kts
21-Aug-20 20:05 33.254358 -113.069141 133 38844ft 477kts
21-Aug-20 20:06 33.166144 -112.951779 132 38837ft 463kts
21-Aug-20 20:07 33.082043 -112.840295 132 36721ft 449kts
21-Aug-20 20:08 32.999323 -112.730982 132 34683ft 442kts
21-Aug-20 20:09 32.931695 -112.608953 115 32731ft 447kts
21-Aug-20 20:10 32.880704 -112.477349 114 30788ft 450kts
21-Aug-20 20:11 32.828306 -112.341724 115 28781ft 446kts
21-Aug-20 20:12 32.777403 -112.210386 115 26837ft 430kts
21-Aug-20 20:13 32.728081 -112.083617 115 24964ft 416kts
21-Aug-20 20:14 32.680501 -111.961774 115 23179ft 403kts
21-Aug-20 20:15 32.633803 -111.842592 115 21458ft 392kts
21-Aug-20 20:16 32.588289 -111.726833 115 19775ft 383kts
21-Aug-20 20:17 32.540332 -111.615665 126 18104ft 374kts
21-Aug-20 20:18 32.479365 -111.518521 126 16790ft 338kts
21-Aug-20 20:19 32.428060 -111.437953 126 15219ft 299kts
21-Aug-20 20:20 32.379586 -111.360853 125 12209ft 289kts
21-Aug-20 20:21 32.351073 -111.278109 88 8926ft 283kts
21-Aug-20 20:22 32.317876 -111.194598 119 7586ft 283kts
21-Aug-20 20:23 32.276628 -111.124493 135 6920ft 243kts
21-Aug-20 20:24 32.226120 -111.068441 135 5514ft 249kts
21-Aug-20 20:25 32.182341 -111.017054 135 4285ft 184kts
21-Aug-20 20:26 32.152370 -110.982100 134 3333ft 137kts
21-Aug-20 20:27 32.125365 -110.950188 135 2682ft 134kts
21-Aug-20 20:28 32.113166 -110.935923 134 2623ft 29kts
21-Aug-20 20:29 32.113404 -110.933719 319 2629ft 14kts
21-Aug-20 20:30 32.117160 -110.937896 351 2615ft 21kts
21-Aug-20 20:31 32.118573 -110.936787 355 2615ft 0kts
21-Aug-20 20:32 32.118573 -110.936787 355 2615ft 0kts
21-Aug-20 20:33 32.118573 -110.936787 355 2615ft 0kts
21-Aug-20 20:34 32.118573 -110.936787 355 2615ft 0kts

Navigation Log

Ident Type
Flight plan parsing failed, navigation log unavailable